createdAt,value
2023-04-22T00:00:57.512Z,95005.28
2023-04-22T00:03:25.697Z,94977.63
2023-04-22T00:05:54.683Z,94962.53
2023-04-22T00:08:22.822Z,95011.06
2023-04-22T00:10:52.191Z,94967.34
2023-04-22T00:13:20.343Z,95005.91
2023-04-22T00:15:48.524Z,95006.59
2023-04-22T00:18:16.734Z,95007.69
2023-04-22T00:20:45.048Z,95000.94
2023-04-22T00:23:13.174Z,95007.84
2023-04-22T00:25:41.824Z,95002.47
2023-04-22T00:28:11.258Z,95010.59
2023-04-22T00:30:39.388Z,95010.56
2023-04-22T00:33:07.350Z,95008.53
2023-04-22T00:35:35.394Z,95007.13
2023-04-22T00:38:03.551Z,95006.59
2023-04-22T00:40:31.485Z,94997.53
2023-04-22T00:43:00.921Z,95012.91
2023-04-22T00:45:32.098Z,95013.00
2023-04-22T00:48:00.837Z,95025.97
2023-04-22T00:50:28.886Z,95020.19
2023-04-22T00:52:56.946Z,95028.28
2023-04-22T00:55:25.094Z,95032.44
2023-04-22T00:57:53.506Z,95028.31
2023-04-22T01:00:26.909Z,95030.09
2023-04-22T01:02:57.178Z,95032.34
2023-04-22T01:05:25.746Z,95017.69
2023-04-22T01:07:53.857Z,95014.53
2023-04-22T01:10:21.870Z,95030.94
2023-04-22T01:12:49.868Z,95006.34
2023-04-22T01:15:18.162Z,95028.25
2023-04-22T01:17:46.794Z,95023.34
2023-04-22T01:20:16.967Z,95028.09
2023-04-22T01:22:46.620Z,95013.41
2023-04-22T01:25:16.037Z,95023.63
2023-04-22T01:27:44.589Z,95015.28
2023-04-22T01:30:13.761Z,95029.75
2023-04-22T01:32:42.389Z,95035.88
2023-04-22T01:35:11.346Z,95026.56
2023-04-22T01:37:39.542Z,95017.09
2023-04-22T01:40:10.433Z,95014.56
2023-04-22T01:42:40.238Z,95026.19
2023-04-22T01:45:09.253Z,95020.00
2023-04-22T01:47:37.348Z,95013.88
2023-04-22T01:50:05.902Z,95009.28
2023-04-22T01:52:34.079Z,95008.34
2023-04-22T01:55:03.111Z,95028.81
2023-04-22T01:57:31.056Z,95018.06
2023-04-22T02:00:00.490Z,95015.22
2023-04-22T02:02:28.744Z,95016.03
2023-04-22T02:04:56.892Z,95022.13
2023-04-22T02:07:24.938Z,95000.50
2023-04-22T02:09:52.850Z,95027.09
2023-04-22T02:12:21.016Z,95023.31
2023-04-22T02:14:49.010Z,95026.81
2023-04-22T02:17:18.818Z,95021.78
2023-04-22T02:19:46.844Z,95020.53
2023-04-22T02:22:15.094Z,95009.03
2023-04-22T02:24:43.175Z,95017.50
2023-04-22T02:27:11.323Z,95008.81
2023-04-22T02:29:39.490Z,95022.75
2023-04-22T02:32:07.742Z,95017.88
2023-04-22T02:34:37.532Z,95026.44
2023-04-22T02:37:05.700Z,95027.69
2023-04-22T02:39:33.716Z,95023.09
2023-04-22T02:42:02.475Z,95025.31
2023-04-22T02:44:30.493Z,95026.00
2023-04-22T02:46:58.726Z,95030.25
2023-04-22T02:49:26.851Z,95042.75
2023-04-22T02:51:56.316Z,95026.66
2023-04-22T02:54:24.295Z,95033.44
2023-04-22T02:56:52.295Z,95042.91
2023-04-22T02:59:20.234Z,95041.19
2023-04-22T03:01:48.407Z,95027.44
2023-04-22T03:04:16.679Z,94955.44
2023-04-22T03:06:44.673Z,95028.06
2023-04-22T03:09:14.049Z,95034.41
2023-04-22T03:11:41.999Z,95040.28
2023-04-22T03:14:10.004Z,95043.72
2023-04-22T03:16:38.238Z,94942.69
2023-04-22T03:19:06.502Z,95049.72
2023-04-22T03:21:34.528Z,95043.94
2023-04-22T03:24:02.500Z,95042.03
2023-04-22T03:26:31.795Z,95054.84
2023-04-22T03:28:59.744Z,95066.22
2023-04-22T03:31:27.727Z,95058.16
2023-04-22T03:33:55.708Z,95049.66
2023-04-22T03:36:23.625Z,95056.28
2023-04-22T03:38:51.699Z,95054.25
2023-04-22T03:41:19.711Z,95058.69
2023-04-22T03:43:49.110Z,95062.75
2023-04-22T03:46:17.290Z,95054.72
2023-04-22T03:48:45.374Z,95011.84
2023-04-22T03:51:13.457Z,95064.50
2023-04-22T03:53:41.417Z,95067.81
2023-04-22T03:56:09.445Z,95050.47
2023-04-22T03:58:37.428Z,95064.22
2023-04-22T04:01:06.862Z,95069.25
2023-04-22T04:03:35.081Z,95070.34
2023-04-22T04:06:03.496Z,95069.72
2023-04-22T04:08:31.591Z,95090.56
2023-04-22T04:10:59.573Z,95080.59
2023-04-22T04:13:32.368Z,95085.00
2023-04-22T04:16:01.570Z,95072.97
2023-04-22T04:18:30.993Z,95071.25
2023-04-22T04:20:58.971Z,95080.34
2023-04-22T04:23:27.269Z,95066.09
2023-04-22T04:25:55.783Z,95074.84
2023-04-22T04:28:24.472Z,95086.19
2023-04-22T04:30:53.695Z,95086.16
2023-04-22T04:33:21.809Z,95092.81
2023-04-22T04:35:51.604Z,95070.97
2023-04-22T04:38:19.726Z,95093.38
2023-04-22T04:40:48.003Z,95091.06
2023-04-22T04:43:15.973Z,95092.06
2023-04-22T04:45:48.485Z,95105.00
2023-04-22T04:48:17.591Z,95085.13
2023-04-22T04:50:47.215Z,95109.00
2023-04-22T04:53:16.567Z,95103.81
2023-04-22T04:55:44.587Z,95094.91
2023-04-22T04:58:12.711Z,95108.81
2023-04-22T05:00:40.785Z,95112.81
2023-04-22T05:03:08.904Z,95119.09
2023-04-22T05:05:37.587Z,95111.66
2023-04-22T05:08:05.704Z,95123.69
2023-04-22T05:10:35.238Z,95120.38
2023-04-22T05:13:04.427Z,95121.47
2023-04-22T05:15:32.669Z,95119.69
2023-04-22T05:18:00.797Z,95120.94
2023-04-22T05:20:28.846Z,95110.28
2023-04-22T05:22:56.764Z,95113.28
2023-04-22T05:25:24.698Z,95112.44
2023-04-22T05:27:54.182Z,95112.06
2023-04-22T05:30:22.301Z,95119.56
2023-04-22T05:32:50.361Z,95082.78
2023-04-22T05:35:18.600Z,95108.69
2023-04-22T05:37:46.517Z,95108.97
2023-04-22T05:40:14.516Z,95096.69
2023-04-22T05:42:42.511Z,95120.34
2023-04-22T05:45:12.829Z,95112.53
2023-04-22T05:47:40.970Z,95112.97
2023-04-22T05:50:09.962Z,95110.25
2023-04-22T05:52:39.042Z,95119.09
2023-04-22T05:55:08.329Z,95117.84
2023-04-22T05:57:36.421Z,95117.88
2023-04-22T06:00:05.136Z,95114.81
2023-04-22T06:02:34.816Z,95115.16
2023-04-22T06:05:03.120Z,95107.84
2023-04-22T06:07:31.525Z,95126.34
2023-04-22T06:10:05.135Z,95107.97
2023-04-22T06:12:34.795Z,95123.16
2023-04-22T06:15:02.829Z,95116.53
2023-04-22T06:17:30.923Z,95124.84
2023-04-22T06:20:00.408Z,95110.28
2023-04-22T06:22:28.453Z,95122.09
2023-04-22T06:24:56.450Z,95126.94
2023-04-22T06:27:25.754Z,95121.56
2023-04-22T06:29:53.742Z,95121.13
2023-04-22T06:32:21.874Z,95117.06
2023-04-22T06:34:52.531Z,95123.19
2023-04-22T06:37:21.816Z,95118.28
2023-04-22T06:39:49.926Z,95123.63
2023-04-22T06:42:18.247Z,95128.41
2023-04-22T06:44:46.191Z,95086.03
2023-04-22T06:47:14.242Z,95112.78
2023-04-22T06:49:43.272Z,95121.59
2023-04-22T06:52:11.933Z,95124.66
2023-04-22T06:54:41.303Z,95121.75
2023-04-22T06:57:09.440Z,95123.69
2023-04-22T06:59:37.767Z,95122.91
2023-04-22T07:02:06.909Z,95108.91
2023-04-22T07:04:35.200Z,95119.72
2023-04-22T07:07:03.714Z,95110.44
2023-04-22T07:09:31.739Z,95136.22
2023-04-22T07:12:01.360Z,95119.03
2023-04-22T07:14:29.334Z,95122.91
2023-04-22T07:16:57.428Z,95137.44
2023-04-22T07:19:27.111Z,95119.72
2023-04-22T07:21:55.383Z,95125.75
2023-04-22T07:24:23.709Z,95129.47
2023-04-22T07:26:51.846Z,95114.84
2023-04-22T07:29:21.239Z,95107.03
2023-04-22T07:31:49.247Z,95116.31
2023-04-22T07:34:19.298Z,95120.25
2023-04-22T07:36:47.467Z,95094.06
2023-04-22T07:39:15.707Z,95125.72
2023-04-22T07:41:43.605Z,95129.19
2023-04-22T07:44:16.485Z,95124.06
2023-04-22T07:46:45.953Z,95133.53
2023-04-22T07:49:14.374Z,95117.13
2023-04-22T07:51:42.638Z,95117.50
2023-04-22T07:54:10.660Z,95110.84
2023-04-22T07:56:38.668Z,95126.50
2023-04-22T07:59:07.131Z,95025.72
2023-04-22T08:01:35.068Z,95094.78
2023-04-22T08:04:04.583Z,95120.31
2023-04-22T08:06:33.081Z,95120.88
2023-04-22T08:09:01.097Z,95120.66
2023-04-22T08:11:29.116Z,95101.72
2023-04-22T08:13:57.286Z,95110.28
2023-04-22T08:16:25.459Z,95106.97
2023-04-22T08:18:53.794Z,95101.41
2023-04-22T08:21:23.221Z,95103.72
2023-04-22T08:23:52.188Z,95104.97
2023-04-22T08:26:20.430Z,95069.06
2023-04-22T08:28:48.809Z,95100.28
2023-04-22T08:31:16.840Z,95090.53
2023-04-22T08:33:44.862Z,95096.81
2023-04-22T08:36:12.988Z,95089.97
2023-04-22T08:38:42.623Z,95062.75
2023-04-22T08:41:12.049Z,95083.19
2023-04-22T08:43:40.204Z,95077.00
2023-04-22T08:46:08.338Z,95070.78
2023-04-22T08:48:38.127Z,95077.66
2023-04-22T08:51:07.944Z,95078.75
2023-04-22T08:53:36.063Z,95042.66
2023-04-22T08:56:07.074Z,95052.41
2023-04-22T08:58:35.728Z,95043.47
2023-04-22T09:01:04.762Z,95061.09
2023-04-22T09:03:33.159Z,95065.50
2023-04-22T09:06:04.563Z,95055.34
2023-04-22T09:08:33.595Z,95059.38
2023-04-22T09:11:01.640Z,95048.84
2023-04-22T09:13:31.250Z,95040.25
2023-04-22T09:16:00.103Z,95057.50
2023-04-22T09:18:28.135Z,95058.59
2023-04-22T09:20:57.577Z,95050.25
2023-04-22T09:23:26.284Z,95047.03
2023-04-22T09:25:54.286Z,95048.34
2023-04-22T09:28:22.320Z,95042.34
2023-04-22T09:30:51.732Z,95044.16
2023-04-22T09:33:19.749Z,95019.88
2023-04-22T09:36:10.024Z,95039.69
2023-04-22T09:38:38.987Z,95041.78
2023-04-22T09:41:11.365Z,95035.28
2023-04-22T09:43:39.642Z,94974.41
2023-04-22T09:46:11.479Z,95040.97
2023-04-22T09:48:44.111Z,95044.53
2023-04-22T09:51:19.237Z,95055.31
2023-04-22T09:53:59.313Z,95033.72
2023-04-22T09:56:54.332Z,95042.09
2023-04-22T09:59:23.550Z,95056.16
2023-04-22T10:01:54.201Z,95026.88
2023-04-22T10:04:23.387Z,94980.78
2023-04-22T10:06:52.736Z,95060.25
2023-04-22T10:09:23.030Z,95058.09
2023-04-22T10:11:52.853Z,95054.28
2023-04-22T10:14:21.538Z,95050.13
2023-04-22T10:16:50.883Z,95042.19
2023-04-22T10:19:22.430Z,95035.59
2023-04-22T10:21:55.061Z,95030.47
2023-04-22T10:24:23.179Z,95031.06
2023-04-22T10:26:53.058Z,95030.84
2023-04-22T10:29:23.410Z,95030.91
2023-04-22T10:31:57.340Z,95027.00
2023-04-22T10:34:26.977Z,95028.13
2023-04-22T10:36:56.726Z,95006.81
2023-04-22T10:39:26.547Z,95014.69
2023-04-22T10:41:58.227Z,95005.69
2023-04-22T10:44:30.727Z,94995.72
2023-04-22T10:47:00.577Z,94995.16
2023-04-22T10:49:32.633Z,95006.75
2023-04-22T10:52:01.653Z,94992.75
2023-04-22T10:54:58.608Z,95000.56
2023-04-22T10:57:37.534Z,94974.31
2023-04-22T11:00:42.147Z,95005.13
2023-04-22T11:03:17.074Z,94966.41
2023-04-22T11:05:47.084Z,95003.56
2023-04-22T11:08:24.329Z,95003.16
2023-04-22T11:10:54.152Z,95008.22
2023-04-22T11:13:23.206Z,95010.53
2023-04-22T11:15:54.208Z,94999.53
2023-04-22T11:18:23.477Z,95004.69
2023-04-22T11:20:53.800Z,94989.81
2023-04-22T11:23:25.063Z,95015.03
2023-04-22T11:25:57.757Z,95008.78
2023-04-22T11:28:25.972Z,95015.59
2023-04-22T11:30:54.583Z,95030.56
2023-04-22T11:33:22.771Z,95033.16
2023-04-22T11:35:52.757Z,95032.50
2023-04-22T11:38:20.919Z,95039.63
2023-04-22T11:40:49.158Z,95034.75
2023-04-22T11:43:18.709Z,95041.53
2023-04-22T11:45:46.934Z,95041.31
2023-04-22T11:48:16.789Z,95005.66
2023-04-22T11:50:45.254Z,95031.53
2023-04-22T11:53:19.367Z,95050.00
2023-04-22T11:55:51.039Z,95038.41
2023-04-22T11:58:25.003Z,95036.19
2023-04-22T12:00:54.725Z,95061.19
2023-04-22T12:03:24.758Z,95067.13
2023-04-22T12:05:54.957Z,95058.91
2023-04-22T12:08:26.189Z,95056.00
2023-04-22T12:10:56.006Z,95069.78
2023-04-22T12:13:25.299Z,95068.22
2023-04-22T12:15:56.565Z,95070.13
2023-04-22T12:18:49.383Z,95067.44
2023-04-22T12:21:20.632Z,95049.41
2023-04-22T12:23:53.455Z,95070.50
2023-04-22T12:26:26.391Z,95055.22
2023-04-22T12:28:56.303Z,95037.41
2023-04-22T12:31:24.689Z,95052.19
2023-04-22T12:33:52.976Z,95029.47
2023-04-22T12:36:22.071Z,95037.56
2023-04-22T12:38:51.779Z,95013.59
2023-04-22T12:41:20.053Z,95059.53
2023-04-22T12:43:48.411Z,95047.34
2023-04-22T12:46:16.497Z,95046.31
2023-04-22T12:48:44.496Z,95047.88
2023-04-22T12:51:12.447Z,95039.06
2023-04-22T12:53:40.538Z,95049.06
2023-04-22T12:56:10.057Z,95027.59
2023-04-22T12:58:37.998Z,95037.78
2023-04-22T13:01:06.264Z,95029.22
2023-04-22T13:03:34.431Z,95051.88
2023-04-22T13:06:02.518Z,95034.59
2023-04-22T13:08:30.910Z,95040.91
2023-04-22T13:11:00.278Z,95033.09
2023-04-22T13:13:29.781Z,95047.97
2023-04-22T13:15:57.863Z,95040.53
2023-04-22T13:18:25.845Z,95036.53
2023-04-22T13:20:55.155Z,95032.22
2023-04-22T13:23:23.436Z,95040.41
2023-04-22T13:25:51.841Z,95033.72
2023-04-22T13:28:20.073Z,95023.53
2023-04-22T13:30:49.751Z,95013.03
2023-04-22T13:33:17.797Z,95017.28
2023-04-22T13:35:46.710Z,95031.41
2023-04-22T13:38:14.725Z,95009.94
2023-04-22T13:40:42.825Z,95015.34
2023-04-22T13:43:11.087Z,95030.56
2023-04-22T13:45:40.114Z,95038.25
2023-04-22T13:48:09.575Z,95039.06
2023-04-22T13:50:37.507Z,95036.00
2023-04-22T13:53:09.967Z,95043.00
2023-04-22T13:55:38.097Z,95020.22
2023-04-22T13:58:07.685Z,95031.25
2023-04-22T14:00:36.087Z,95037.97
2023-04-22T14:03:04.379Z,94903.84
2023-04-22T14:05:33.967Z,95040.25
2023-04-22T14:08:02.142Z,95012.94
2023-04-22T14:10:30.093Z,95029.75
2023-04-22T14:12:58.129Z,95033.31
2023-04-22T14:15:26.091Z,95027.84
2023-04-22T14:17:54.934Z,94995.44
2023-04-22T14:20:25.134Z,95025.13
2023-04-22T14:22:54.787Z,95018.88
2023-04-22T14:25:22.835Z,95012.19
2023-04-22T14:27:50.993Z,95016.50
2023-04-22T14:30:20.429Z,95029.03
2023-04-22T14:32:48.453Z,95024.38
2023-04-22T14:35:16.458Z,95027.47
2023-04-22T14:37:45.233Z,95022.03
2023-04-22T14:40:14.928Z,95017.00
2023-04-22T14:42:42.908Z,94964.22
2023-04-22T14:45:11.895Z,95029.47
2023-04-22T14:47:40.010Z,95006.03
2023-04-22T14:50:08.818Z,95023.59
2023-04-22T14:52:36.842Z,95029.00
2023-04-22T14:55:15.584Z,95021.47
2023-04-22T14:57:54.340Z,95016.41
2023-04-22T15:00:22.541Z,95029.25
2023-04-22T15:02:51.212Z,94989.50
2023-04-22T15:05:19.429Z,95038.31
2023-04-22T15:07:47.351Z,95015.34
2023-04-22T15:10:16.886Z,95051.59
2023-04-22T15:12:45.725Z,95023.91
2023-04-22T15:15:16.226Z,95031.72
2023-04-22T15:17:44.793Z,95032.41
2023-04-22T15:20:14.145Z,95032.41
2023-04-22T15:22:43.043Z,95003.41
2023-04-22T15:25:11.933Z,95032.22
2023-04-22T15:27:40.237Z,94994.28
2023-04-22T15:30:11.067Z,95038.03
2023-04-22T15:32:43.694Z,95026.34
2023-04-22T15:35:12.831Z,95043.81
2023-04-22T15:37:42.167Z,95030.03
2023-04-22T15:40:10.708Z,95047.13
2023-04-22T15:42:38.694Z,95020.91
2023-04-22T15:45:08.067Z,95048.03
2023-04-22T15:47:36.933Z,95051.13
2023-04-22T15:50:09.489Z,95058.03
2023-04-22T15:52:38.909Z,95061.19
2023-04-22T15:55:07.789Z,95032.34
2023-04-22T15:57:36.226Z,95039.88
2023-04-22T16:00:11.834Z,95055.09
2023-04-22T16:02:41.481Z,95021.41
2023-04-22T16:05:11.896Z,95062.09
2023-04-22T16:07:40.425Z,95070.50
2023-04-22T16:10:10.243Z,95049.34
2023-04-22T16:12:38.186Z,95069.25
2023-04-22T16:15:07.962Z,95061.78
2023-04-22T16:17:36.206Z,95023.31
2023-04-22T16:20:06.193Z,95072.81
2023-04-22T16:22:35.598Z,95070.16
2023-04-22T16:25:04.295Z,95077.75
2023-04-22T16:27:32.544Z,95076.81
2023-04-22T16:30:00.551Z,95040.28
2023-04-22T16:32:28.632Z,95071.94
2023-04-22T16:34:56.984Z,95088.19
2023-04-22T16:37:25.028Z,95069.94
2023-04-22T16:39:54.556Z,95093.28
2023-04-22T16:42:22.510Z,95083.50
2023-04-22T16:44:51.599Z,95102.78
2023-04-22T16:47:19.717Z,95107.88
2023-04-22T16:49:47.912Z,95112.38
2023-04-22T16:52:16.202Z,95107.97
2023-04-22T16:54:44.158Z,95120.28
2023-04-22T16:57:13.646Z,95117.47
2023-04-22T16:59:41.924Z,95123.78
2023-04-22T17:02:10.483Z,95105.25
2023-04-22T17:04:38.975Z,95130.25
2023-04-22T17:07:09.409Z,95130.75
2023-04-22T17:09:37.362Z,95145.63
2023-04-22T17:12:06.255Z,95148.88
2023-04-22T17:14:35.620Z,95149.53
2023-04-22T17:17:03.596Z,95144.69
2023-04-22T17:19:31.596Z,95153.50
2023-04-22T17:22:01.697Z,95134.97
2023-04-22T17:24:30.652Z,95166.34
2023-04-22T17:26:58.714Z,95152.59
2023-04-22T17:29:26.960Z,95141.03
2023-04-22T17:31:56.605Z,95173.16
2023-04-22T17:34:24.624Z,95010.22
2023-04-22T17:36:54.143Z,95181.41
2023-04-22T17:39:23.361Z,95188.22
2023-04-22T17:41:51.339Z,95184.22
2023-04-22T17:44:19.274Z,95170.06
2023-04-22T17:46:47.317Z,95172.25
2023-04-22T17:49:16.806Z,95171.53
2023-04-22T17:51:44.910Z,95195.84
2023-04-22T17:54:12.943Z,95202.22
2023-04-22T17:56:40.999Z,95187.84
2023-04-22T17:59:11.311Z,95204.09
2023-04-22T18:01:39.940Z,95036.38
2023-04-22T18:04:08.222Z,95201.56
2023-04-22T18:06:40.693Z,95209.38
2023-04-22T18:09:08.696Z,95225.72
2023-04-22T18:11:37.305Z,95214.72
2023-04-22T18:14:05.784Z,95184.41
2023-04-22T18:16:33.704Z,95223.31
2023-04-22T18:19:04.118Z,95221.88
2023-04-22T18:21:32.717Z,95238.00
2023-04-22T18:24:03.803Z,95234.78
2023-04-22T18:26:32.400Z,95233.34
2023-04-22T18:29:00.523Z,95237.28
2023-04-22T18:31:29.162Z,95254.75
2023-04-22T18:36:41.716Z,95245.75
2023-04-22T18:39:11.478Z,95259.69
2023-04-22T18:41:40.199Z,95229.59
2023-04-22T18:44:08.184Z,95227.13
2023-04-22T18:46:36.346Z,95247.50
2023-04-22T18:49:04.645Z,95264.47
2023-04-22T18:51:33.260Z,95266.28
2023-04-22T18:54:01.550Z,95252.69
2023-04-22T18:56:32.956Z,95248.97
2023-04-22T18:59:01.016Z,95258.84
2023-04-22T19:01:29.585Z,95248.19
2023-04-22T19:04:01.656Z,95224.06
2023-04-22T19:06:29.978Z,95276.31
2023-04-22T19:08:58.105Z,95278.78
2023-04-22T19:11:26.317Z,95277.22
2023-04-22T19:13:55.747Z,95281.03
2023-04-22T19:16:26.189Z,95262.00
2023-04-22T19:18:54.724Z,95282.63
2023-04-22T19:21:22.811Z,95289.50
2023-04-22T19:23:53.072Z,95290.16
2023-04-22T19:26:22.224Z,95290.16
2023-04-22T19:28:50.367Z,95278.22
2023-04-22T19:31:19.862Z,95267.50
2023-04-22T19:33:48.579Z,95291.94
2023-04-22T19:36:16.749Z,95283.63
2023-04-22T19:38:45.020Z,95296.34
2023-04-22T19:41:13.668Z,95288.91
2023-04-22T19:43:42.113Z,95225.53
2023-04-22T19:46:10.110Z,95286.31
2023-04-22T19:48:40.304Z,95259.50
2023-04-22T19:51:11.092Z,95286.75
2023-04-22T19:53:42.085Z,95237.78
2023-04-22T19:56:10.366Z,95270.75
2023-04-22T19:58:39.693Z,95276.94
2023-04-22T20:01:09.083Z,95289.09
2023-04-22T20:03:39.412Z,95284.22
2023-04-22T20:06:08.340Z,95277.44
2023-04-22T20:08:41.866Z,95272.50
2023-04-22T20:11:11.600Z,95268.66
2023-04-22T20:13:40.576Z,95281.00
2023-04-22T20:16:09.673Z,95263.44
2023-04-22T20:18:39.477Z,95273.34
2023-04-22T20:21:08.325Z,95281.75
2023-04-22T20:23:36.905Z,95279.41
2023-04-22T20:26:05.072Z,95271.59
2023-04-22T20:28:44.971Z,95277.56
2023-04-22T20:31:13.635Z,95276.66
2023-04-22T20:33:43.170Z,95271.81
2023-04-22T20:36:11.786Z,95226.97
2023-04-22T20:38:40.512Z,95282.41
2023-04-22T20:41:10.128Z,95277.69
2023-04-22T20:43:38.070Z,95271.50
2023-04-22T20:46:06.737Z,95256.06
2023-04-22T20:48:34.794Z,95272.59
2023-04-22T20:51:04.202Z,95277.91
2023-04-22T20:53:32.189Z,95283.03
2023-04-22T20:56:00.158Z,95274.84
2023-04-22T20:58:28.286Z,95282.94
2023-04-22T21:00:56.857Z,95265.41
2023-04-22T21:03:28.651Z,95277.56
2023-04-22T21:05:59.246Z,95278.66
2023-04-22T21:08:29.340Z,95226.19
2023-04-22T21:10:57.925Z,95220.97
2023-04-22T21:13:26.488Z,95288.41
2023-04-22T21:15:58.976Z,95287.78
2023-04-22T21:18:27.750Z,95265.97
2023-04-22T21:20:57.447Z,95258.94
2023-04-22T21:23:25.806Z,95250.91
2023-04-22T21:25:56.296Z,95254.81
2023-04-22T21:28:24.851Z,95256.75
2023-04-22T21:30:53.502Z,95252.84
2023-04-22T21:33:21.602Z,95266.47
2023-04-22T21:35:49.752Z,95273.88
2023-04-22T21:38:17.773Z,95258.31
2023-04-22T21:40:45.779Z,95239.25
2023-04-22T21:43:15.255Z,95259.75
2023-04-22T21:45:43.206Z,95276.06
2023-04-22T21:48:11.390Z,95281.41
2023-04-22T21:50:39.387Z,95270.03
2023-04-22T21:53:08.021Z,95281.56
2023-04-22T21:55:36.159Z,95283.91
2023-04-22T21:58:04.380Z,95264.50
2023-04-22T22:00:33.812Z,95277.72
2023-04-22T22:03:03.395Z,95268.78
2023-04-22T22:05:31.911Z,95269.53
2023-04-22T22:07:59.919Z,95273.00
2023-04-22T22:10:28.141Z,95280.75
2023-04-22T22:12:56.360Z,95278.56
2023-04-22T22:15:24.657Z,95264.38
2023-04-22T22:17:54.024Z,95289.63
2023-04-22T22:20:22.245Z,95288.50
2023-04-22T22:22:50.242Z,95284.09
2023-04-22T22:25:18.381Z,95287.09
2023-04-22T22:27:47.327Z,95296.56
2023-04-22T22:30:16.189Z,95291.09
2023-04-22T22:32:45.876Z,95301.53
2023-04-22T22:35:16.501Z,95293.63
2023-04-22T22:37:45.261Z,95296.00
2023-04-22T22:40:14.076Z,95298.22
2023-04-22T22:42:42.095Z,95292.06
2023-04-22T22:45:10.952Z,95300.78
2023-04-22T22:47:40.835Z,95296.66
2023-04-22T22:50:09.888Z,95288.59
2023-04-22T22:52:39.294Z,95301.09
2023-04-22T22:55:08.253Z,95282.44
2023-04-22T22:57:36.238Z,95294.63
2023-04-22T23:00:05.979Z,95289.06
2023-04-22T23:02:34.071Z,95214.25
2023-04-22T23:05:02.373Z,95291.91
2023-04-22T23:07:30.396Z,95226.69
2023-04-22T23:09:59.828Z,95278.28
2023-04-22T23:12:27.845Z,95287.47
2023-04-22T23:14:56.013Z,95260.31
2023-04-22T23:17:24.084Z,95288.03
2023-04-22T23:19:53.374Z,95294.03
2023-04-22T23:22:21.432Z,95266.88
2023-04-22T23:24:49.851Z,95288.53
2023-04-22T23:27:20.380Z,95276.69
2023-04-22T23:29:48.905Z,95286.31
2023-04-22T23:32:20.773Z,95289.63
2023-04-22T23:34:50.934Z,95288.66
2023-04-22T23:37:20.675Z,95229.91
2023-04-22T23:39:48.703Z,95275.38
2023-04-22T23:42:16.687Z,95288.31
2023-04-22T23:44:46.395Z,95283.09
2023-04-22T23:47:14.680Z,95280.13
2023-04-22T23:49:42.825Z,95283.63
2023-04-22T23:52:13.168Z,95287.41
2023-04-22T23:54:41.941Z,95286.16
2023-04-22T23:57:10.777Z,95276.72
2023-04-22T23:59:39.439Z,95190.50
